Time;durP1;ratioP1;P1;durP2;ratioP2;P2;SDS_P1;SDS_P2;PMS_P1;PMS_P2;Temp;Humidity;BMP_temperature;BMP_pressure;BME280_temperature;BME280_humidity;BME280_pressure;Samples;Min_cycle;Max_cycle;Signal;HPM_P1;HPM_P2
2024/04/11 00:02:02;;;;;;;5.75;2.80;;;;;;;15.90;37.02;95526.81;5481012;26;19994;-73
2024/04/11 00:04:28;;;;;;;6.55;2.65;;;;;;;15.86;37.39;95531.72;5482569;26;20349;-74
2024/04/11 00:06:53;;;;;;;4.78;3.00;;;;;;;15.82;37.46;95540.16;5481373;26;20425;-74
2024/04/11 00:09:18;;;;;;;7.75;3.92;;;;;;;15.78;37.88;95544.31;5479919;26;20001;-74
2024/04/11 00:11:44;;;;;;;5.00;2.58;;;;;;;15.75;37.72;95540.44;5485046;26;20043;-74
2024/04/11 00:14:09;;;;;;;5.88;3.00;;;;;;;15.71;38.16;95533.50;5483714;26;20340;-74
2024/04/11 00:16:34;;;;;;;7.90;3.30;;;;;;;15.63;38.26;95528.22;5485041;26;19998;-73
2024/04/11 00:19:00;;;;;;;5.78;3.50;;;;;;;15.64;38.41;95531.78;5485643;26;20010;-74
2024/04/11 00:21:25;;;;;;;8.48;3.42;;;;;;;15.61;38.57;95544.53;5484240;26;20367;-73
2024/04/11 00:23:53;;;;;;;5.43;2.90;;;;;;;15.54;38.75;95530.16;5486456;26;20036;-74
2024/04/11 00:26:18;;;;;;;9.60;3.17;;;;;;;15.51;38.71;95539.41;5453990;26;19994;-74
2024/04/11 00:28:43;;;;;;;5.93;3.58;;;;;;;15.47;39.22;95536.75;5484670;26;20005;-73
2024/04/11 00:31:09;;;;;;;6.15;3.47;;;;;;;15.43;39.29;95535.38;5485145;26;20381;-74
2024/04/11 00:33:37;;;;;;;6.95;3.08;;;;;;;15.36;39.13;95539.91;5484817;26;19990;-74
2024/04/11 00:36:05;;;;;;;8.55;3.58;;;;;;;15.30;39.33;95533.44;5483729;26;20339;-73
2024/04/11 00:38:33;;;;;;;6.68;3.30;;;;;;;15.25;39.48;95534.00;5484571;26;20088;-75
2024/04/11 00:40:59;;;;;;;7.97;3.50;;;;;;;15.21;39.60;95546.47;5486184;26;20126;-74
2024/04/11 00:43:26;;;;;;;7.07;3.28;;;;;;;15.14;39.80;95544.75;5485371;26;19994;-74
2024/04/11 00:45:52;;;;;;;7.72;3.80;;;;;;;15.04;40.09;95546.66;5486383;26;19998;-73
2024/04/11 00:48:18;;;;;;;7.25;3.47;;;;;;;15.02;40.00;95535.25;5453112;26;20387;-73
2024/04/11 00:50:44;;;;;;;7.57;3.40;;;;;;;14.95;40.30;95543.06;5484470;26;20006;-73
2024/04/11 00:53:10;;;;;;;7.68;3.65;;;;;;;14.89;40.41;95534.56;5482575;26;19994;-74
2024/04/11 00:55:36;;;;;;;4.68;3.03;;;;;;;14.87;40.74;95543.31;5486138;26;19998;-75
2024/04/11 00:58:02;;;;;;;4.97;3.75;;;;;;;14.80;40.66;95542.81;5485523;26;20005;-73
2024/04/11 01:00:28;;;;;;;6.65;3.67;;;;;;;14.73;40.99;95535.50;5453505;26;20370;-73
2024/04/11 01:02:53;;;;;;;5.95;3.22;;;;;;;14.76;40.72;95539.38;5485882;26;20174;-74
2024/04/11 01:05:19;;;;;;;6.35;3.28;;;;;;;14.66;41.10;95541.31;5483230;26;20377;-73
2024/04/11 01:08:11;;;;;;;6.07;3.22;;;;;;;14.59;41.25;95539.56;5485935;26;20332;-74
2024/04/11 01:10:37;;;;;;;10.85;4.03;;;;;;;14.51;41.40;95543.81;5479724;26;19994;-73
2024/04/11 01:13:06;;;;;;;5.78;3.10;;;;;;;14.46;41.20;95544.34;5483714;26;20065;-74
2024/04/11 01:15:35;;;;;;;8.30;3.22;;;;;;;14.46;41.20;95552.63;5453495;26;20008;-74
2024/04/11 01:18:03;;;;;;;6.18;3.38;;;;;;;14.42;41.65;95546.44;5483306;26;20348;-74
2024/04/11 01:20:29;;;;;;;5.63;3.20;;;;;;;14.39;41.21;95549.31;5483514;26;20017;-73
2024/04/11 01:22:55;;;;;;;6.97;3.20;;;;;;;14.29;41.58;95545.72;5452812;26;20010;-74
2024/04/11 01:25:21;;;;;;;4.07;2.72;;;;;;;14.27;41.96;95557.22;5483680;26;20005;-75
2024/04/11 01:27:47;;;;;;;5.45;3.38;;;;;;;14.25;41.78;95553.34;5484616;26;20116;-75
2024/04/11 01:30:12;;;;;;;4.32;2.97;;;;;;;14.24;41.83;95560.09;5483362;26;20038;-73
2024/04/11 01:32:38;;;;;;;4.35;2.80;;;;;;;14.18;42.02;95562.66;5452757;26;20528;-73
2024/04/11 01:35:04;;;;;;;4.72;2.80;;;;;;;14.11;41.84;95556.56;5485214;26;20039;-74
2024/04/11 01:37:30;;;;;;;6.43;3.35;;;;;;;14.05;42.52;95554.41;5483679;26;20041;-74
2024/04/11 01:39:56;;;;;;;5.43;3.22;;;;;;;14.07;42.10;95563.00;5483001;26;20010;-73
2024/04/11 01:42:21;;;;;;;6.32;2.60;;;;;;;14.00;42.34;95560.47;5483267;26;20002;-73
2024/04/11 01:44:46;;;;;;;6.07;2.95;;;;;;;13.99;42.31;95560.91;5482427;26;20070;-75
2024/04/11 01:47:14;;;;;;;5.30;2.80;;;;;;;13.98;42.42;95564.88;5485296;26;20070;-75
2024/04/11 01:49:40;;;;;;;4.85;2.70;;;;;;;13.91;42.37;95565.13;5482590;26;19998;-75
2024/04/11 01:52:09;;;;;;;5.63;2.80;;;;;;;13.81;42.67;95556.72;5482737;26;19994;-73
2024/04/11 01:54:41;;;;;;;4.93;3.47;;;;;;;13.75;42.99;95561.25;5482848;26;20082;-73
2024/04/11 01:57:08;;;;;;;5.85;3.10;;;;;;;13.75;42.91;95563.25;5452422;26;20447;-75
2024/04/11 01:59:33;;;;;;;9.73;3.05;;;;;;;13.73;43.04;95560.94;5453055;26;20254;-73
2024/04/11 02:01:59;;;;;;;9.13;3.30;;;;;;;13.70;43.22;95561.81;5482539;26;19994;-73
2024/04/11 02:04:30;;;;;;;6.05;2.97;;;;;;;13.67;43.40;95565.47;5483238;26;20838;-74
2024/04/11 02:06:56;;;;;;;5.65;2.85;;;;;;;13.59;43.77;95566.09;5482616;26;19998;-74
2024/04/11 02:09:23;;;;;;;10.65;2.92;;;;;;;13.60;43.64;95562.94;5482923;26;19998;-74
2024/04/11 02:11:51;;;;;;;7.03;3.42;;;;;;;13.58;43.51;95572.84;5484598;26;20009;-74
2024/04/11 02:14:18;;;;;;;8.50;2.90;;;;;;;13.48;43.54;95569.22;5482229;26;20020;-74
2024/04/11 02:16:44;;;;;;;5.47;2.63;;;;;;;13.45;43.66;95570.84;5484409;26;20027;-74
2024/04/11 02:19:12;;;;;;;8.77;3.15;;;;;;;13.40;43.94;95576.91;5481981;26;19994;-74
2024/04/11 02:21:40;;;;;;;5.03;2.67;;;;;;;13.34;43.60;95578.69;5453434;26;19998;-74
2024/04/11 02:24:07;;;;;;;6.18;3.60;;;;;;;13.27;44.02;95576.91;5483856;26;20002;-74
2024/04/11 02:26:34;;;;;;;5.45;2.85;;;;;;;13.29;43.82;95580.00;5483247;26;20325;-74
2024/04/11 02:29:06;;;;;;;7.78;3.15;;;;;;;13.22;44.16;95580.22;5482343;26;20320;-74
2024/04/11 02:31:33;;;;;;;7.38;2.85;;;;;;;13.19;44.59;95577.50;5484368;26;20030;-74
2024/04/11 02:33:59;;;;;;;8.63;3.35;;;;;;;13.13;44.61;95588.34;5451573;26;19999;-74
2024/04/11 02:36:29;;;;;;;7.35;3.08;;;;;;;13.14;44.75;95587.13;5483263;26;20436;-73
2024/04/11 02:38:58;;;;;;;12.55;3.00;;;;;;;13.07;44.67;95586.53;5483104;26;20133;-75
2024/04/11 02:41:24;;;;;;;4.88;2.28;;;;;;;13.06;44.84;95587.75;5451224;26;20010;-73
2024/04/11 02:43:49;;;;;;;7.07;3.55;;;;;;;13.01;44.93;95583.53;5482803;26;20034;-75
2024/04/11 02:46:15;;;;;;;7.00;2.97;;;;;;;12.97;44.86;95588.41;5483676;26;20338;-74
2024/04/11 02:48:47;;;;;;;7.72;3.13;;;;;;;12.96;44.78;95595.91;5484105;26;19995;-73
2024/04/11 02:51:13;;;;;;;7.97;3.30;;;;;;;12.80;45.08;95584.91;5481688;26;19994;-75
2024/04/11 02:53:39;;;;;;;8.40;3.70;;;;;;;12.80;45.30;95587.69;5481283;26;20324;-73
2024/04/11 02:56:07;;;;;;;7.75;3.60;;;;;;;12.80;45.23;95590.44;5452257;26;20389;-74
2024/04/11 02:58:33;;;;;;;10.18;3.15;;;;;;;12.76;45.21;95587.75;5451363;26;20459;-76
2024/04/11 03:01:00;;;;;;;13.23;3.33;;;;;;;12.70;45.48;95594.25;5482624;26;20002;-76
2024/04/11 03:03:25;;;;;;;9.70;3.80;;;;;;;12.68;45.40;95591.16;5481855;26;19998;-77
2024/04/11 03:05:50;;;;;;;8.20;3.55;;;;;;;12.67;45.60;95592.34;5451778;26;20425;-76
2024/04/11 03:08:16;;;;;;;11.32;3.80;;;;;;;12.67;45.71;95595.09;5481940;26;20063;-76
2024/04/11 03:10:42;;;;;;;8.93;3.92;;;;;;;12.62;45.68;95606.69;5484059;26;20009;-77
2024/04/11 03:13:07;;;;;;;11.20;4.40;;;;;;;12.58;46.14;95600.47;5484446;26;19994;-76
2024/04/11 03:15:33;;;;;;;8.88;4.47;;;;;;;12.57;45.67;95610.75;5481179;26;20029;-76
2024/04/11 03:17:58;;;;;;;8.98;3.92;;;;;;;12.56;45.94;95611.16;5484526;26;20066;-74
2024/04/11 03:20:23;;;;;;;8.88;3.40;;;;;;;12.48;45.95;95616.09;5451003;26;19998;-75
2024/04/11 03:22:49;;;;;;;6.25;3.40;;;;;;;12.47;46.14;95618.06;5482387;26;19994;-75
2024/04/11 03:25:14;;;;;;;10.68;4.18;;;;;;;12.45;46.15;95617.75;5481680;26;19998;-78
2024/04/11 03:27:40;;;;;;;9.13;3.50;;;;;;;12.39;46.19;95619.47;5482424;26;20002;-77
2024/04/11 03:30:06;;;;;;;12.15;3.58;;;;;;;12.31;46.49;95620.84;5482211;26;20038;-76
2024/04/11 03:32:31;;;;;;;8.35;3.40;;;;;;;12.32;46.53;95629.88;5483252;26;20341;-76
2024/04/11 03:34:57;;;;;;;7.65;3.75;;;;;;;12.30;46.82;95637.81;5482481;26;20042;-76
2024/04/11 03:37:23;;;;;;;10.63;3.88;;;;;;;12.26;46.48;95631.59;5450795;26;20070;-76
2024/04/11 03:39:48;;;;;;;10.20;4.05;;;;;;;12.22;46.36;95642.72;5482102;26;20038;-75
2024/04/11 03:42:14;;;;;;;8.82;3.53;;;;;;;12.22;46.82;95640.75;5480810;26;20024;-75
2024/04/11 03:44:42;;;;;;;10.52;3.70;;;;;;;12.21;46.44;95632.88;5483563;26;20434;-76
2024/04/11 03:47:08;;;;;;;16.05;4.60;;;;;;;12.11;46.96;95637.47;5485058;26;20005;-75
2024/04/11 03:49:34;;;;;;;8.43;4.78;;;;;;;12.13;46.94;95637.03;5484793;26;20058;-77
2024/04/11 03:52:00;;;;;;;7.88;3.88;;;;;;;12.12;47.18;95647.28;5454336;26;19998;-76
2024/04/11 03:54:27;;;;;;;10.95;4.18;;;;;;;12.10;47.20;95640.63;5486001;26;20009;-76
2024/04/11 03:56:53;;;;;;;9.50;4.40;;;;;;;12.14;47.08;95638.59;5486916;26;20436;-77
2024/04/11 03:59:18;;;;;;;12.55;4.53;;;;;;;12.03;47.78;95649.84;5483716;26;19998;-76
2024/04/11 04:01:44;;;;;;;10.30;4.25;;;;;;;12.02;47.63;95644.78;5485283;26;19998;-76
2024/04/11 04:04:10;;;;;;;12.50;4.65;;;;;;;12.05;47.48;95655.72;5484648;26;20002;-76
2024/04/11 04:06:36;;;;;;;13.98;4.43;;;;;;;12.01;47.46;95657.00;5484349;26;19999;-75
2024/04/11 04:09:07;;;;;;;19.23;4.70;;;;;;;11.99;47.60;95643.66;5484822;26;20005;-76
2024/04/11 04:11:36;;;;;;;19.13;5.55;;;;;;;12.04;47.64;95654.16;5455364;26;20419;-76
2024/04/11 04:14:03;;;;;;;21.05;6.43;;;;;;;12.00;47.93;95655.47;5485493;26;20001;-77
2024/04/11 04:16:28;;;;;;;25.45;5.25;;;;;;;11.88;48.05;95660.44;5485733;26;20067;-76
2024/04/11 04:18:54;;;;;;;21.60;5.72;;;;;;;11.88;48.19;95654.94;5485281;26;20010;-76
2024/04/11 04:21:20;;;;;;;13.77;4.57;;;;;;;11.87;48.09;95658.88;5485819;26;19998;-77
2024/04/11 04:23:48;;;;;;;18.67;4.38;;;;;;;11.82;48.12;95664.91;5484850;26;20431;-76
2024/04/11 04:26:16;;;;;;;12.73;4.38;;;;;;;11.84;48.49;95668.00;5484438;26;20059;-75
2024/04/11 04:28:42;;;;;;;12.45;5.00;;;;;;;11.86;48.21;95670.31;5454250;26;20369;-74
2024/04/11 04:31:14;;;;;;;15.07;4.50;;;;;;;11.84;48.58;95668.00;5486534;26;20424;-75
2024/04/11 04:33:41;;;;;;;16.90;5.40;;;;;;;11.88;48.21;95665.16;5483913;26;20387;-74
2024/04/11 04:36:06;;;;;;;21.38;5.50;;;;;;;11.83;48.31;95669.19;5485040;26;20005;-76
2024/04/11 04:38:32;;;;;;;14.07;5.00;;;;;;;11.88;48.54;95671.47;5483278;26;19998;-75
2024/04/11 04:40:57;;;;;;;16.27;5.35;;;;;;;11.88;48.33;95667.94;5486168;26;20403;-74
2024/04/11 04:43:23;;;;;;;21.15;6.30;;;;;;;11.91;48.46;95669.81;5483765;26;20066;-76
2024/04/11 04:45:49;;;;;;;23.92;7.20;;;;;;;11.89;48.48;95678.50;5484349;26;20006;-76
2024/04/11 04:48:15;;;;;;;19.17;6.70;;;;;;;11.92;48.75;95682.38;5485966;26;20444;-75
2024/04/11 04:50:41;;;;;;;20.98;5.22;;;;;;;11.95;48.99;95689.81;5453268;26;19994;-75
2024/04/11 04:53:06;;;;;;;17.23;6.35;;;;;;;11.93;49.02;95689.47;5484003;26;20066;-76
2024/04/11 04:55:33;;;;;;;27.85;7.57;;;;;;;11.96;48.76;95681.09;5483799;26;19994;-74
2024/04/11 04:57:58;;;;;;;22.73;5.82;;;;;;;12.03;48.95;95693.16;5454229;26;20332;-77
2024/04/11 05:00:24;;;;;;;26.45;7.22;;;;;;;12.06;48.76;95690.34;5453090;26;19998;-75
2024/04/11 05:02:52;;;;;;;14.65;6.28;;;;;;;12.06;48.72;95692.31;5485341;26;19998;-75
2024/04/11 05:05:18;;;;;;;16.30;6.82;;;;;;;12.13;48.66;95697.66;5483402;26;20080;-75
2024/04/11 05:07:45;;;;;;;16.67;6.20;;;;;;;12.14;48.77;95696.47;5453263;26;20013;-76
2024/04/11 05:10:12;;;;;;;19.92;7.43;;;;;;;12.17;48.70;95701.91;5484492;26;19994;-75
2024/04/11 05:12:48;;;;;;;21.55;6.25;;;;;;;12.27;48.85;95707.59;5484943;26;20022;-75
2024/04/11 05:15:14;;;;;;;14.90;6.53;;;;;;;12.32;48.39;95707.06;5484807;26;20003;-75
2024/04/11 05:17:42;;;;;;;23.85;8.23;;;;;;;12.33;48.36;95708.63;5484790;26;19994;-76
2024/04/11 05:20:21;;;;;;;19.17;7.82;;;;;;;12.35;48.20;95707.00;5485818;26;19994;-75
2024/04/11 05:22:48;;;;;;;15.93;7.78;;;;;;;12.42;47.96;95712.34;5483958;26;20018;-75
2024/04/11 05:25:15;;;;;;;21.40;7.60;;;;;;;12.50;47.72;95710.19;5453251;26;20346;-75
2024/04/11 05:27:42;;;;;;;15.85;6.18;;;;;;;12.57;47.45;95710.03;5484085;26;20000;-74
2024/04/11 05:30:11;;;;;;;14.25;6.50;;;;;;;12.67;47.08;95714.53;5482705;26;20423;-76
2024/04/11 05:32:43;;;;;;;16.15;6.05;;;;;;;12.68;46.92;95716.06;5483840;26;19994;-75
2024/04/11 05:35:09;;;;;;;17.02;6.43;;;;;;;12.78;46.68;95711.47;5483083;26;20780;-75
2024/04/11 05:37:40;;;;;;;12.15;6.82;;;;;;;12.84;46.45;95725.53;5483284;26;19994;-74
2024/04/11 05:40:12;;;;;;;18.98;6.88;;;;;;;12.87;46.37;95717.16;5483960;26;20015;-74
2024/04/11 05:42:44;;;;;;;18.38;7.35;;;;;;;12.97;46.73;95715.34;5483075;26;20095;-72
2024/04/11 05:45:16;;;;;;;14.98;7.28;;;;;;;13.01;46.75;95719.53;5485577;26;19994;-75
2024/04/11 05:47:43;;;;;;;18.33;7.75;;;;;;;13.11;46.65;95728.75;5484513;26;19998;-75
2024/04/11 05:50:09;;;;;;;17.10;8.07;;;;;;;13.24;47.01;95723.31;5485478;26;20070;-74
2024/04/11 05:52:35;;;;;;;20.02;7.32;;;;;;;13.30;46.80;95729.88;5481972;26;20005;-74
2024/04/11 05:55:02;;;;;;;19.60;7.47;;;;;;;13.35;46.64;95728.56;5484554;26;19994;-74
2024/04/11 05:57:28;;;;;;;23.13;7.75;;;;;;;13.50;46.08;95738.81;5484377;26;20061;-74
2024/04/11 05:59:55;;;;;;;18.65;7.85;;;;;;;13.62;46.20;95737.28;5482648;26;19998;-73
2024/04/11 06:02:21;;;;;;;15.85;6.80;;;;;;;13.68;46.16;95735.53;5482585;26;19998;-73
2024/04/11 06:04:46;;;;;;;15.73;6.68;;;;;;;13.74;46.24;95746.84;5482476;26;20049;-75
2024/04/11 06:07:12;;;;;;;16.77;6.95;;;;;;;13.87;45.91;95747.63;5485025;26;20009;-72
2024/04/11 06:09:39;;;;;;;16.58;6.78;;;;;;;13.95;45.52;95750.97;5482910;26;19994;-73
2024/04/11 06:12:05;;;;;;;14.63;5.75;;;;;;;14.00;44.97;95758.75;5481617;26;20010;-73
2024/04/11 06:14:30;;;;;;;17.45;6.55;;;;;;;14.00;44.63;95753.97;5450128;26;20005;-73
2024/04/11 06:16:56;;;;;;;13.88;6.65;;;;;;;14.11;44.53;95764.72;5482627;26;20009;-74
2024/04/11 06:19:21;;;;;;;15.18;5.88;;;;;;;14.16;44.00;95764.16;5482128;26;20005;-73
2024/04/11 06:21:53;;;;;;;12.25;5.93;;;;;;;14.27;43.82;95763.84;5482188;26;20009;-72
2024/04/11 06:24:20;;;;;;;15.73;5.72;;;;;;;14.33;43.34;95773.91;5484593;26;20026;-73
2024/04/11 06:26:45;;;;;;;16.60;4.97;;;;;;;14.42;43.27;95775.25;5483909;26;20385;-73
2024/04/11 06:29:12;;;;;;;15.40;5.50;;;;;;;14.50;43.11;95774.63;5482749;26;20005;-72
2024/04/11 06:31:38;;;;;;;9.85;4.53;;;;;;;14.67;42.16;95768.97;5481817;26;20009;-73
2024/04/11 06:34:04;;;;;;;13.05;3.92;;;;;;;14.70;41.97;95768.09;5482154;26;20009;-72
2024/04/11 06:36:32;;;;;;;9.65;4.15;;;;;;;14.81;41.48;95774.84;5484081;26;20058;-74
2024/04/11 06:38:59;;;;;;;12.15;3.95;;;;;;;15.02;40.88;95781.66;5482272;26;20013;-73
2024/04/11 06:41:25;;;;;;;7.47;3.20;;;;;;;15.05;40.91;95783.56;5484046;26;20006;-74
2024/04/11 06:43:51;;;;;;;9.90;3.20;;;;;;;15.17;40.53;95782.00;5483450;26;20452;-74
2024/04/11 06:46:18;;;;;;;5.70;2.33;;;;;;;15.26;40.17;95778.56;5452528;26;20030;-73
2024/04/11 06:48:45;;;;;;;8.32;2.50;;;;;;;15.31;39.73;95789.84;5451503;26;20004;-74
2024/04/11 06:51:14;;;;;;;7.85;3.28;;;;;;;15.47;39.07;95788.09;5481695;26;20058;-74
2024/04/11 06:53:43;;;;;;;5.28;2.38;;;;;;;15.55;39.10;95784.66;5451265;26;20743;-75
2024/04/11 06:56:11;;;;;;;7.70;2.17;;;;;;;15.61;38.88;95782.84;5451897;26;20476;-73
2024/04/11 06:58:37;;;;;;;7.57;3.65;;;;;;;15.74;38.93;95780.06;5482062;26;20073;-74
2024/04/11 07:01:04;;;;;;;4.40;2.22;;;;;;;15.85;38.68;95786.00;5480874;26;19998;-74
2024/04/11 07:03:30;;;;;;;5.97;2.58;;;;;;;15.96;38.76;95782.06;5482120;26;20010;-73
2024/04/11 07:06:16;;;;;;;5.57;2.50;;;;;;;16.08;38.25;95786.78;5483079;26;19998;-74
2024/04/11 07:08:43;;;;;;;4.93;2.63;;;;;;;16.29;38.10;95788.75;5481952;26;19994;-74
2024/04/11 07:11:26;;;;;;;10.32;2.53;;;;;;;16.39;37.97;95786.78;5482122;26;19995;-74
2024/04/11 07:13:56;;;;;;;8.13;2.22;;;;;;;16.50;38.02;95795.47;5455729;26;20035;-74
2024/04/11 07:16:26;;;;;;;6.38;2.35;;;;;;;16.58;38.23;95793.22;5451375;26;20069;-73
2024/04/11 07:18:55;;;;;;;7.32;2.85;;;;;;;16.71;38.33;95802.25;5450964;26;20421;-73
2024/04/11 07:21:25;;;;;;;5.22;2.10;;;;;;;16.88;37.44;95803.56;5483732;26;20041;-74
2024/04/11 07:23:54;;;;;;;5.10;2.20;;;;;;;17.05;37.05;95804.06;5481757;26;20055;-74
2024/04/11 07:26:22;;;;;;;6.63;1.90;;;;;;;17.12;37.12;95809.34;5481346;26;20008;-74
2024/04/11 07:28:48;;;;;;;7.18;2.50;;;;;;;17.35;36.28;95815.56;5481623;26;20325;-75
2024/04/11 07:31:14;;;;;;;4.75;2.40;;;;;;;17.48;36.04;95816.19;5481188;26;20001;-74
2024/04/11 07:33:40;;;;;;;6.40;2.40;;;;;;;17.51;36.18;95818.06;5481848;26;19994;-73
2024/04/11 07:36:07;;;;;;;10.55;2.83;;;;;;;17.59;36.01;95808.19;5480965;26;20009;-75
2024/04/11 07:38:35;;;;;;;3.90;2.63;;;;;;;17.78;36.05;95815.34;5450984;26;20468;-74
2024/04/11 07:41:16;;;;;;;8.07;2.40;;;;;;;17.90;36.03;95813.66;5481342;26;20413;-74
2024/04/11 07:43:44;;;;;;;3.97;2.10;;;;;;;18.06;35.54;95812.53;5482513;26;20037;-73
2024/04/11 07:46:09;;;;;;;6.05;2.05;;;;;;;18.19;35.14;95813.16;5481528;26;19994;-74
2024/04/11 07:48:35;;;;;;;6.18;2.30;;;;;;;18.36;34.81;95818.41;5480582;26;20008;-75
2024/04/11 07:51:05;;;;;;;7.15;2.15;;;;;;;18.57;33.75;95812.59;5483759;26;20432;-71
2024/04/11 07:53:31;;;;;;;7.18;2.38;;;;;;;18.77;33.65;95814.91;5450695;26;20006;-75
2024/04/11 07:55:57;;;;;;;7.32;2.45;;;;;;;18.93;32.55;95813.75;5481299;26;20567;-79
2024/04/11 07:58:23;;;;;;;4.88;2.00;;;;;;;19.15;32.10;95824.63;5482815;26;20319;-75
2024/04/11 08:00:50;;;;;;;9.13;2.40;;;;;;;19.28;32.15;95816.84;5482584;26;20277;-79
2024/04/11 08:03:17;;;;;;;5.13;2.08;;;;;;;19.42;32.16;95806.22;5451086;26;20063;-71
2024/04/11 08:05:45;;;;;;;4.32;2.05;;;;;;;19.63;30.93;95814.31;5481063;26;20068;-77
2024/04/11 08:08:12;;;;;;;4.32;1.98;;;;;;;19.77;31.21;95823.97;5450776;26;20002;-74
2024/04/11 08:10:38;;;;;;;3.83;2.10;;;;;;;19.97;31.30;95826.16;5479637;26;19998;-73
2024/04/11 08:13:03;;;;;;;5.50;1.80;;;;;;;20.20;29.53;95821.00;5450923;26;19995;-80
2024/04/11 08:15:30;;;;;;;5.18;2.33;;;;;;;20.31;28.50;95822.00;5480320;26;19994;-75
2024/04/11 08:17:56;;;;;;;5.15;2.30;;;;;;;20.41;28.40;95825.44;5482643;26;20113;-74
2024/04/11 08:20:21;;;;;;;6.43;2.40;;;;;;;20.59;28.62;95824.53;5480559;26;20034;-75
2024/04/11 08:22:47;;;;;;;7.38;2.38;;;;;;;20.72;28.80;95818.66;5480172;26;19994;-75
2024/04/11 08:25:13;;;;;;;5.10;2.08;;;;;;;20.85;28.26;95822.69;5480875;26;20009;-73
2024/04/11 08:27:44;;;;;;;6.53;2.00;;;;;;;20.98;26.37;95827.19;5481176;26;20005;-74
2024/04/11 08:30:11;;;;;;;5.13;2.63;;;;;;;21.07;26.97;95825.06;5482620;26;19999;-74
2024/04/11 08:32:38;;;;;;;4.97;2.47;;;;;;;21.16;27.38;95819.38;5482957;26;20002;-75
2024/04/11 08:35:06;;;;;;;6.03;2.20;;;;;;;21.39;25.82;95825.28;5484521;26;19994;-75
2024/04/11 08:37:33;;;;;;;4.85;2.00;;;;;;;21.55;23.94;95826.78;5485473;26;20329;-75
2024/04/11 08:39:59;;;;;;;2.42;1.80;;;;;;;21.74;21.75;95825.28;5486249;26;19998;-74
2024/04/11 08:42:28;;;;;;;5.28;2.10;;;;;;;21.87;21.41;95814.50;5484918;26;20014;-74
2024/04/11 08:44:57;;;;;;;4.03;1.77;;;;;;;22.01;19.92;95824.81;5483933;26;19998;-75
2024/04/11 08:47:24;;;;;;;4.57;2.08;;;;;;;22.11;20.69;95819.88;5485140;26;20001;-74
2024/04/11 08:49:50;;;;;;;3.70;1.83;;;;;;;22.30;20.90;95828.75;5483370;26;20088;-74
2024/04/11 08:52:16;;;;;;;5.28;2.38;;;;;;;22.53;19.98;95830.50;5483980;26;20328;-75
2024/04/11 08:54:42;;;;;;;4.90;2.00;;;;;;;22.78;19.07;95814.19;5453149;26;20066;-74
2024/04/11 08:57:12;;;;;;;7.97;1.73;;;;;;;23.00;17.50;95820.00;5485631;26;20405;-74
2024/04/11 08:59:38;;;;;;;2.90;1.75;;;;;;;23.17;18.49;95822.13;5454494;26;19994;-73
2024/04/11 09:02:05;;;;;;;4.57;1.80;;;;;;;23.39;18.05;95816.69;5483394;26;19994;-77
2024/04/11 09:04:31;;;;;;;1.98;1.35;;;;;;;23.60;17.21;95822.94;5481126;26;20439;-76
2024/04/11 09:06:57;;;;;;;6.00;1.80;;;;;;;23.78;17.17;95818.97;5481305;26;19994;-76
2024/04/11 09:09:23;;;;;;;4.68;2.35;;;;;;;24.02;17.40;95827.75;5452806;26;20030;-74
2024/04/11 09:11:51;;;;;;;6.38;2.40;;;;;;;24.27;16.25;95822.47;5481864;26;19998;-75
2024/04/11 09:14:17;;;;;;;6.20;1.98;;;;;;;24.45;15.66;95824.84;5484483;26;20336;-75
2024/04/11 09:16:42;;;;;;;4.55;1.77;;;;;;;24.64;15.89;95823.09;5482611;26;19998;-75
2024/04/11 09:19:09;;;;;;;4.05;1.80;;;;;;;24.86;15.17;95827.97;5484721;26;20006;-75
2024/04/11 09:21:40;;;;;;;7.22;3.50;;;;;;;25.08;15.50;95823.66;5483736;26;19998;-74
2024/04/11 09:24:13;;;;;;;4.85;1.85;;;;;;;25.30;14.02;95820.06;5484636;26;20001;-75
2024/04/11 09:26:39;;;;;;;4.43;1.83;;;;;;;25.57;14.48;95821.28;5483785;26;20066;-75
2024/04/11 09:29:04;;;;;;;3.40;1.70;;;;;;;25.82;14.06;95825.09;5484667;26;20476;-74
2024/04/11 09:31:30;;;;;;;3.80;1.80;;;;;;;26.08;13.91;95822.66;5483536;26;20009;-76
2024/04/11 09:33:58;;;;;;;3.83;2.00;;;;;;;26.34;13.48;95827.16;5483802;26;19998;-74
2024/04/11 09:36:27;;;;;;;2.83;1.58;;;;;;;26.55;13.36;95822.69;5480541;26;19991;-76
2024/04/11 09:39:05;;;;;;;2.80;1.65;;;;;;;26.76;12.95;95834.34;5481826;26;19990;-73
2024/04/11 09:41:33;;;;;;;5.28;1.42;;;;;;;26.83;12.76;95830.97;5479542;26;20031;-75
2024/04/11 09:44:01;;;;;;;4.50;1.30;;;;;;;26.98;12.63;95834.19;5483289;26;19994;-76
2024/04/11 09:46:27;;;;;;;3.70;1.60;;;;;;;27.21;12.45;95831.97;5481240;26;20066;-75
2024/04/11 09:48:53;;;;;;;3.15;1.40;;;;;;;27.46;12.57;95823.53;5483535;26;20091;-75
2024/04/11 09:51:20;;;;;;;2.00;1.20;;;;;;;27.67;11.66;95826.66;5482905;26;20018;-75
2024/04/11 09:53:46;;;;;;;3.65;1.40;;;;;;;27.73;11.95;95825.34;5482479;26;19998;-74
2024/04/11 09:56:15;;;;;;;4.10;1.70;;;;;;;28.00;12.58;95823.50;5483205;26;20106;-76
2024/04/11 09:58:45;;;;;;;3.80;2.30;;;;;;;28.29;12.23;95823.91;5451892;26;19998;-76
2024/04/11 10:01:31;;;;;;;2.20;1.52;;;;;;;28.54;11.27;95825.38;5483722;26;19994;-74
2024/04/11 10:04:03;;;;;;;2.45;1.50;;;;;;;28.74;11.87;95818.41;5484372;26;20386;-74
2024/04/11 10:06:30;;;;;;;2.78;1.20;;;;;;;28.99;11.89;95823.97;5453443;26;20006;-75
2024/04/11 10:09:17;;;;;;;2.75;1.38;;;;;;;29.16;11.70;95824.47;5483354;26;19994;-75
2024/04/11 10:11:45;;;;;;;2.92;1.48;;;;;;;29.36;12.04;95814.59;5482146;26;19994;-76
2024/04/11 10:14:22;;;;;;;2.13;1.33;;;;;;;29.56;11.75;95833.84;5485126;26;19994;-75
2024/04/11 10:16:49;;;;;;;2.15;1.00;;;;;;;29.65;11.73;95818.50;5482380;26;20026;-74
2024/04/11 10:19:27;;;;;;;6.60;1.42;;;;;;;29.95;12.58;95818.19;5483341;26;20004;-73
2024/04/11 10:22:06;;;;;;;5.90;2.47;;;;;;;30.21;12.87;95825.16;5482321;26;20333;-74
2024/04/11 10:24:35;;;;;;;2.92;1.50;;;;;;;30.30;11.56;95824.72;5482135;26;19990;-73
2024/04/11 10:27:09;;;;;;;3.53;1.90;;;;;;;30.63;11.43;95823.22;5483290;26;20005;-75
2024/04/11 10:29:46;;;;;;;3.92;1.58;;;;;;;30.83;11.43;95816.84;5482115;26;20018;-76
2024/04/11 10:32:22;;;;;;;3.97;1.20;;;;;;;31.09;11.37;95830.16;5483143;26;20010;-75
2024/04/11 10:34:56;;;;;;;2.10;1.33;;;;;;;31.26;10.84;95818.44;5484112;26;19994;-75
2024/04/11 10:37:24;;;;;;;2.65;1.10;;;;;;;31.49;10.51;95824.28;5482014;26;20005;-75
2024/04/11 10:39:55;;;;;;;3.75;1.77;;;;;;;31.73;10.41;95823.91;5483007;26;20005;-76
2024/04/11 10:42:29;;;;;;;3.40;1.30;;;;;;;32.02;10.16;95823.16;5481874;26;20038;-76
2024/04/11 10:44:56;;;;;;;4.78;1.63;;;;;;;32.18;10.46;95821.94;5482990;26;20353;-76
2024/04/11 10:47:22;;;;;;;5.13;1.00;;;;;;;32.48;10.17;95821.34;5452254;26;20005;-76
2024/04/11 10:49:51;;;;;;;2.88;1.33;;;;;;;32.98;10.20;95822.66;5451820;26;20070;-76
2024/04/11 10:52:19;;;;;;;3.45;1.48;;;;;;;33.53;9.68;95827.84;5482485;26;20348;-76
2024/04/11 10:54:48;;;;;;;2.83;1.65;;;;;;;33.98;9.33;95823.44;5480200;26;19994;-77
2024/04/11 10:57:14;;;;;;;3.33;1.35;;;;;;;34.51;9.36;95816.84;5483153;26;20356;-77
2024/04/11 10:59:50;;;;;;;3.58;1.80;;;;;;;35.08;9.30;95821.13;5450900;26;20355;-77
2024/04/11 11:02:19;;;;;;;5.03;2.03;;;;;;;35.75;9.07;95818.34;5483130;26;19994;-77
2024/04/11 11:04:45;;;;;;;4.30;1.77;;;;;;;36.33;8.15;95812.44;5451695;26;20006;-77
2024/04/11 11:07:11;;;;;;;3.00;1.85;;;;;;;37.10;9.26;95821.59;5451895;26;20428;-76
2024/04/11 11:09:42;;;;;;;2.47;1.52;;;;;;;37.85;7.92;95815.31;5482948;26;20047;-75
2024/04/11 11:12:15;;;;;;;2.72;1.30;;;;;;;38.57;6.62;95814.91;5483611;26;20092;-75
2024/04/11 11:14:40;;;;;;;6.22;1.40;;;;;;;39.09;6.93;95815.13;5482524;26;20022;-74
2024/04/11 11:17:07;;;;;;;2.88;1.25;;;;;;;39.65;6.61;95823.44;5480907;26;20005;-75
2024/04/11 11:19:34;;;;;;;3.90;1.30;;;;;;;40.09;6.42;95819.28;5482498;26;19994;-75
2024/04/11 11:22:00;;;;;;;2.42;1.10;;;;;;;40.26;5.86;95819.00;5482916;26;20006;-75
2024/04/11 11:24:28;;;;;;;1.95;1.33;;;;;;;40.41;6.10;95808.41;5483711;26;20001;-76
2024/04/11 11:26:55;;;;;;;2.22;1.20;;;;;;;39.88;6.97;95811.34;5482266;26;20073;-75
2024/04/11 11:29:25;;;;;;;6.07;1.45;;;;;;;38.68;7.48;95817.91;5451310;26;20076;-75
2024/04/11 11:31:52;;;;;;;3.15;1.10;;;;;;;37.26;7.72;95804.16;5482324;26;19994;-74
2024/04/11 11:34:27;;;;;;;3.25;1.02;;;;;;;36.22;8.18;95804.38;5450553;26;20025;-74